Latest Conditions
At L.F.Wade Int. Airport
Recorded at 4:55 am
Partly Cloudy
Temp.: 
27°C/81°F
Humidity: 
82%
Wind: 
S 6KT
or 7mph
UV Index: 
0
Island Observations
 
Observations
Wednesday, August 22, 2018

Observations are in local time and taken at least once an hour, or upon the start and end of specified events such as showers and thunderstorms.

Time Sky / Weather Wind Speed/Gusts Temp. R.H. Pressure
     knots (mph)  °C (°F)  %  mb / "Hg
 04:55 Partly Cloudy  S 6/0 (7/0) 27(81) 82 1022 / 30.17
 03:55 Partly Cloudy  S 6/0 (7/0) 27(81) 79 1022 / 30.18
 02:55 Partly Cloudy  S 3/0 (3/0) 27(80) 81 1022 / 30.19
 01:55 Mostly Cloudy Showers SSE 10/0 (12/0) 26(80) 79 1023 / 30.20
 00:55 Partly Cloudy  SSE 7/0 (8/0) 28(82) 76 1023 / 30.21
 23:55 Mostly Cloudy  S 6/0 (7/0) 28(82) 75 1023 / 30.22
 22:55 Mostly Cloudy  SE 7/0 (8/0) 28(82) 73 1023 / 30.22
 21:55 Mostly Cloudy  SSE 6/0 (7/0) 28(82) 75 1023 / 30.22
 20:55 Mostly Cloudy  S 4/0 (5/0) 28(82) 74 1023 / 30.21
 19:55 Mostly Cloudy Showers S 4/0 (5/0) 28(82) 75 1023 / 30.20
 18:55 Mostly Cloudy  S 4/0 (5/0) 29(83) 72 1023 / 30.20
 17:55 Mostly Cloudy  S 6/0 (7/0) 28(83) 72 1022 / 30.19
 16:55 Mostly Cloudy  S 7/0 (8/0) 29(85) 69 1022 / 30.19
 15:55 Mostly Cloudy  SSE 8/0 (9/0) 30(86) 64 1023 / 30.20
 14:55 Partly Cloudy  S 8/0 (9/0) 30(85) 66 1023 / 30.21
 13:55 Partly Cloudy Showers SSE 7/0 (8/0) 30(86) 71 1023 / 30.21
 12:55 Mostly Cloudy  SSE 7/0 (8/0) 30(86) 71 1023 / 30.22
 12:48 Partly Cloudy Showers SSE 7/0 (8/0) 30(85) 73 1023 / 30.22
 12:18 Partly Cloudy Thunderstorm SSE 7/0 (8/0) 30(86) 71 1024 / 30.23
 11:55 Partly Cloudy Showers SSE 7/0 (8/0) 30(85) 70 1024 / 30.23
 10:55 Partly Cloudy  S 6/0 (7/0) 29(85) 71 1024 / 30.24
 09:55 Partly Cloudy  SSE 7/0 (8/0) 29(84) 71 1023 / 30.22
 08:55 Mostly Cloudy  SSE 5/0 (6/0) 28(83) 73 1023 / 30.22
 07:55 Mostly Cloudy  SSE 3/0 (3/0) 28(82) 75 1023 / 30.22
 06:55 Mostly Cloudy  SE 5/0 (6/0) 27(81) 80 1023 / 30.21
 05:55 Partly Cloudy  SSE 6/0 (7/0) 27(81) 80 1023 / 30.20
 04:55 Few Clouds  SSE 4/0 (5/0) 27(80) 81 1023 / 30.20
 03:55 Partly Cloudy  S 4/0 (5/0) 27(80) 81 1023 / 30.20
 02:55 Mostly Cloudy  SSW 4/0 (5/0) 27(81) 81 1023 / 30.20
 01:55 Mostly Cloudy  S 4/0 (5/0) 27(81) 80 1023 / 30.20
 00:55 Mostly Cloudy  S 4/0 (5/0) 27(81) 81 1023 / 30.22
 23:55 Mostly Cloudy Showers SW 4/0 (5/0) 27(81) 80 1023 / 30.22
 22:55 Mostly Cloudy  SSW 5/0 (6/0) 27(81) 82 1023 / 30.22
 21:55 Mostly Cloudy Showers SSW 6/0 (7/0) 27(81) 82 1023 / 30.21
 20:55 Partly Cloudy  SSW 7/0 (8/0) 27(81) 81 1023 / 30.20
 20:14 Mostly Cloudy Showers VRB 1/0 (1/0) 28(82) 79 1022 / 30.18
 19:55 Mostly Cloudy Showers VRB 3/0 (3/0) 28(82) 77 1022 / 30.19
 19:30 Mostly Cloudy Showers SSW 3/0 (3/0) 28(83) 77 1022 / 30.19
 18:55 Mostly Cloudy  S 3/0 (3/0) 29(83) 73 1022 / 30.18
 17:55 Partly Cloudy  W 2/0 (2/0) 29(84) 73 1022 / 30.18
 17:24 Partly Cloudy Showers WNW 3/0 (3/0) 29(83) 75 1022 / 30.18
 17:18 Mostly Cloudy Showers W 4/0 (5/0) 28(82) 82 1022 / 30.18
 16:55 Mostly Cloudy Showers WSW 7/0 (8/0) 26(80) 88 1022 / 30.17
 16:32 Mostly Cloudy Showers W 10/0 (12/0) 26(78) 90 1023 / 30.20
 16:15 Mostly Cloudy Thunderstorm W 12/0 (14/0) 25(77) 89 1023 / 30.20
 16:02 Mostly Cloudy Thunderstorm WNW 13/25 (15/29) 24(76) 89 1023 / 30.20
 15:55 Mostly Cloudy Thunderstorm WNW 9/0 (10/0) 25(78) 88 1023 / 30.20
 15:46 Mostly Cloudy Thunderstorm NW 9/0 (10/0) 26(78) 89 1023 / 30.20
 15:36 Mostly Cloudy Thunderstorm WNW 13/0 (15/0) 26(78) 87 1023 / 30.20
 15:30 Mostly Cloudy Thunderstorm WNW 10/0 (12/0) 26(79) 84 1023 / 30.20
 15:24 Mostly Cloudy Showers WNW 11/0 (13/0) 27(81) 78 1023 / 30.20
 15:20 Mostly Cloudy Showers WSW 8/0 (9/0) 27(81) 73 1023 / 30.20
 15:08 Partly Cloudy Showers WSW 6/0 (7/0) 29(84) 70 1022 / 30.19
 14:55 Partly Cloudy Showers SSW 8/0 (9/0) 29(84) 70 1023 / 30.20
 14:21 Partly Cloudy Showers W 5/0 (6/0) 29(84) 70 1023 / 30.20
 14:16 Partly Cloudy Showers WSW 7/0 (8/0) 29(84) 69 1023 / 30.20
 14:10 Partly Cloudy Showers WSW 9/0 (10/0) 29(85) 66 1023 / 30.20
 13:55 Partly Cloudy  SW 6/0 (7/0) 29(84) 68 1023 / 30.20
 12:55 Few Clouds  SSW 8/0 (9/0) 29(84) 69 1023 / 30.20
 11:55 Few Clouds  SSW 7/0 (8/0) 29(84) 69 1023 / 30.20
 10:55 Few Clouds  W 5/0 (6/0) 29(84) 70 1023 / 30.20
 09:55 Partly Cloudy  W 6/0 (7/0) 28(83) 75 1022 / 30.19
 08:55 Few Clouds  SW 6/0 (7/0) 28(83) 75 1022 / 30.18
 07:55 Few Clouds  SW 7/0 (8/0) 28(82) 78 1022 / 30.18
 06:55 Few Clouds  SSW 6/0 (7/0) 26(80) 82 1022 / 30.17
 05:55 Few Clouds  SW 7/0 (8/0) 26(79) 81 1021 / 30.15
 04:55 Few Clouds  SW 8/0 (9/0) 26(79) 81 1021 / 30.15
 03:55 Few Clouds  SW 6/0 (7/0) 26(79) 81 1021 / 30.16
 02:55 Few Clouds  SW 7/0 (8/0) 26(80) 80 1021 / 30.16
 01:55 Few Clouds  SW 7/0 (8/0) 27(80) 77 1022 / 30.17
 00:55 Few Clouds  SSW 7/0 (8/0) 27(80) 78 1022 / 30.17
 23:55 Few Clouds  SW 7/0 (8/0) 27(80) 78 1022 / 30.17
 22:55 Few Clouds  SW 6/0 (7/0) 27(81) 75 1022 / 30.17
 21:55 Few Clouds  SW 6/0 (7/0) 28(82) 73 1021 / 30.16
 20:55 Few Clouds  WSW 6/0 (7/0) 28(82) 73 1021 / 30.14
 19:55 Few Clouds  W 8/0 (9/0) 28(82) 73 1021 / 30.14
 18:55 Few Clouds  W 9/0 (10/0) 28(83) 70 1020 / 30.13
 17:55 Few Clouds  W 8/0 (9/0) 29(84) 72 1020 / 30.13
 16:55 Few Clouds  W 9/0 (10/0) 29(84) 70 1020 / 30.12
 15:55 Few Clouds  W 10/0 (12/0) 29(84) 71 1020 / 30.13
 14:55 Few Clouds  W 9/0 (10/0) 29(85) 68 1021 / 30.15
 13:55 Few Clouds  W 8/0 (9/0) 29(85) 67 1021 / 30.15
 12:55 Few Clouds  W 8/0 (9/0) 29(85) 68 1021 / 30.15
 11:55 Few Clouds  W 8/0 (9/0) 29(84) 68 1021 / 30.15
 10:55 Few Clouds  WSW 6/0 (7/0) 29(83) 68 1021 / 30.14
 09:55 Few Clouds  W 7/0 (8/0) 28(82) 68 1020 / 30.13
 08:55 Few Clouds  W 8/0 (9/0) 28(82) 68 1020 / 30.13
 07:55 Few Clouds  W 7/0 (8/0) 27(81) 73 1020 / 30.12
 06:55 Few Clouds  W 5/0 (6/0) 27(80) 75 1019 / 30.10
 05:55 Partly Cloudy  WNW 6/0 (7/0) 27(80) 77 1019 / 30.09
 04:55 Partly Cloudy  W 5/0 (6/0) 27(80) 75 1019 / 30.08
 03:55 Partly Cloudy  W 5/0 (6/0) 27(80) 79 1019 / 30.09
 02:55 Partly Cloudy  WNW 7/0 (8/0) 27(80) 77 1019 / 30.09
 01:55 Partly Cloudy  W 6/0 (7/0) 27(80) 74 1019 / 30.10
 00:55 Mostly Cloudy  WNW 6/0 (7/0) 27(80) 76 1019 / 30.10
 23:55 Mostly Cloudy  WNW 5/0 (6/0) 27(81) 76 1019 / 30.10
 22:55 Mostly Cloudy  WNW 4/0 (5/0) 27(81) 77 1020 / 30.11
 21:55 Mostly Cloudy  WNW 7/0 (8/0) 27(81) 73 1020 / 30.11
 20:55 Mostly Cloudy  WNW 7/0 (8/0) 28(82) 72 1019 / 30.10
 19:55 Mostly Cloudy Showers WNW 8/0 (9/0) 28(82) 79 1019 / 30.10
Island AWOS